HTIR/IRI METAR and TAF weather

Enter ICAO airport designator
Station Type Date Time Source
HTIR METAR 2018/01/22 12:00 UTC NOAA

HTIR 221200Z 00000KT 9999 -RA BKN018 FEW020CB BKN080 21/18 Q1018


Station Type Date Time Source
HTIR Decoded METAR 2018/01/22 12:00 UTC NOAA

Iringa, Tanzania (HTIR) 07-40S 035-45E 1428M
Jan 22, 2018 - 07:00 AM EST / 2018.01.22 1200 UTC
Wind: Calm:0
Visibility: greater than 7 mile(s):0
Sky conditions: mostly cloudy
Weather: light rain; Cumulonimbus clouds observed
Temperature: 69 F (21 C)
Dew Point: 64 F (18 C)
Relative Humidity: 82%
Pressure (altimeter): 30.06 in. Hg (1018 hPa)
ob: HTIR 221200Z 00000KT 9999 -RA BKN018 FEW020CB BKN080 21/18 Q1018
cycle: 12

Station Type Date Time Source
HTIR TAF UTC NOAA

Error!


Example: see airport list